Time;durP1;ratioP1;P1;durP2;ratioP2;P2;SDS_P1;SDS_P2;PMS_P1;PMS_P2;Temp;Humidity;BMP_temperature;BMP_pressure;BME280_temperature;BME280_humidity;BME280_pressure;Samples;Min_cycle;Max_cycle;Signal;HPM_P1;HPM_P2
2021/03/10 00:00:33;;;;;;;5.40;3.97;;;9.20;99.90;;;;;;5040784;28;20183;-77
2021/03/10 00:02:59;;;;;;;7.13;4.70;;;9.20;99.90;;;;;;5020183;28;20165;-77
2021/03/10 00:05:25;;;;;;;5.30;4.80;;;9.20;99.90;;;;;;5052992;28;20184;-77
2021/03/10 00:07:50;;;;;;;5.83;5.33;;;9.30;99.90;;;;;;5070600;28;20259;-77
2021/03/10 00:10:16;;;;;;;5.90;5.30;;;9.30;99.90;;;;;;5052963;28;20169;-77
2021/03/10 00:12:43;;;;;;;7.95;5.18;;;9.30;99.90;;;;;;5065738;28;20567;-77
2021/03/10 00:15:11;;;;;;;6.65;5.85;;;9.30;99.90;;;;;;5043631;28;20204;-77
2021/03/10 00:17:38;;;;;;;9.88;6.00;;;9.30;99.90;;;;;;5074299;28;20160;-78
2021/03/10 00:20:08;;;;;;;5.32;4.55;;;9.30;99.90;;;;;;5039727;28;20255;-78
2021/03/10 00:22:46;;;;;;;5.57;4.97;;;9.40;99.90;;;;;;5074339;28;20263;-78
2021/03/10 00:25:12;;;;;;;7.80;4.00;;;9.30;99.90;;;;;;5056355;28;20251;-78
2021/03/10 00:27:39;;;;;;;5.80;3.93;;;9.30;99.90;;;;;;5074026;28;20160;-77
2021/03/10 00:30:07;;;;;;;5.50;4.18;;;9.40;99.90;;;;;;5056014;28;20563;-78
2021/03/10 00:32:35;;;;;;;5.00;3.63;;;9.30;99.90;;;;;;5056319;28;20226;-77
2021/03/10 00:35:02;;;;;;;6.75;4.25;;;9.30;99.90;;;;;;5056306;28;20667;-77
2021/03/10 00:37:28;;;;;;;4.65;4.25;;;9.30;99.90;;;;;;5060562;28;20181;-77
2021/03/10 00:39:54;;;;;;;7.00;5.10;;;9.30;99.90;;;;;;5056127;28;20173;-78
2021/03/10 00:42:21;;;;;;;5.95;4.88;;;9.30;99.90;;;;;;5097085;22;20208;-79
2021/03/10 00:44:47;;;;;;;5.20;4.60;;;9.30;99.90;;;;;;5064679;28;20184;-81
2021/03/10 00:47:14;;;;;;;4.30;3.90;;;9.30;99.90;;;;;;5059285;28;20574;-78
2021/03/10 00:49:41;;;;;;;5.50;4.50;;;9.30;99.90;;;;;;5072320;28;20200;-81
2021/03/10 00:52:08;;;;;;;4.15;3.75;;;9.30;99.90;;;;;;5073816;28;20168;-80
2021/03/10 00:54:34;;;;;;;6.43;3.95;;;9.30;99.90;;;;;;5073670;28;20165;-79
2021/03/10 00:57:04;;;;;;;4.35;3.95;;;9.30;99.90;;;;;;5073330;28;20194;-79
2021/03/10 00:59:30;;;;;;;4.30;3.85;;;9.30;99.90;;;;;;5055397;28;20168;-79
2021/03/10 01:01:56;;;;;;;4.30;3.90;;;9.30;99.90;;;;;;5066337;28;20180;-81
2021/03/10 01:04:23;;;;;;;4.40;4.00;;;9.30;99.90;;;;;;5073328;28;20671;-76
2021/03/10 01:06:49;;;;;;;3.63;3.33;;;9.30;99.90;;;;;;5055607;28;20204;-77
2021/03/10 01:09:16;;;;;;;5.20;4.33;;;9.30;99.90;;;;;;5055000;28;20635;-76
2021/03/10 01:11:42;;;;;;;3.35;3.05;;;9.30;99.90;;;;;;5073330;28;20571;-77
2021/03/10 01:14:08;;;;;;;3.87;3.57;;;9.20;99.90;;;;;;5038680;28;20511;-77
2021/03/10 01:16:34;;;;;;;4.00;3.57;;;9.30;99.90;;;;;;5055363;28;20614;-76
2021/03/10 01:19:00;;;;;;;4.05;3.75;;;9.20;99.90;;;;;;5054828;28;20681;-76
2021/03/10 01:21:26;;;;;;;4.10;3.80;;;9.20;99.90;;;;;;5073610;28;20267;-76
2021/03/10 01:23:52;;;;;;;4.13;3.58;;;9.20;99.90;;;;;;5078612;28;20189;-76
2021/03/10 01:26:18;;;;;;;3.87;3.57;;;9.20;99.90;;;;;;5063614;28;20690;-76
2021/03/10 01:28:44;;;;;;;3.67;3.37;;;9.10;99.90;;;;;;5070403;28;20649;-76
2021/03/10 01:31:10;;;;;;;4.00;3.60;;;9.10;99.90;;;;;;5063275;28;20172;-76
2021/03/10 01:33:35;;;;;;;4.20;3.37;;;9.10;99.90;;;;;;5063994;28;20207;-76
2021/03/10 01:36:02;;;;;;;5.20;3.77;;;9.10;99.90;;;;;;5070502;28;20733;-76
2021/03/10 01:38:28;;;;;;;5.60;4.25;;;9.00;99.90;;;;;;5072694;28;20520;-76
2021/03/10 01:40:53;;;;;;;4.40;4.00;;;9.00;99.90;;;;;;5072098;28;20161;-76
2021/03/10 01:43:19;;;;;;;3.87;3.57;;;9.00;99.90;;;;;;5068121;28;20204;-76
2021/03/10 01:45:45;;;;;;;3.60;3.30;;;9.00;99.90;;;;;;5050401;28;20713;-76
2021/03/10 01:48:12;;;;;;;4.47;4.07;;;9.00;99.90;;;;;;5071895;28;20184;-76
2021/03/10 01:50:37;;;;;;;3.65;3.35;;;9.00;99.90;;;;;;5045716;28;21161;-76
2021/03/10 01:53:04;;;;;;;5.17;4.23;;;9.00;99.90;;;;;;5072355;28;20298;-76
2021/03/10 01:55:31;;;;;;;4.88;4.47;;;9.00;99.90;;;;;;5054520;28;20283;-76
2021/03/10 01:57:57;;;;;;;4.60;4.20;;;8.90;99.90;;;;;;5037677;28;20169;-76
2021/03/10 02:00:25;;;;;;;4.45;4.05;;;8.90;99.90;;;;;;5076467;28;20522;-76
2021/03/10 02:02:50;;;;;;;4.25;3.85;;;8.90;99.90;;;;;;5037743;28;20338;-76
2021/03/10 02:05:22;;;;;;;4.80;4.37;;;8.90;99.90;;;;;;5054475;28;20326;-76
2021/03/10 02:08:07;;;;;;;5.18;4.20;;;8.90;99.90;;;;;;5037483;28;20703;-77
2021/03/10 02:10:50;;;;;;;4.20;3.80;;;8.90;99.90;;;;;;5054267;28;20616;-76
2021/03/10 02:13:37;;;;;;;4.20;3.90;;;8.80;99.90;;;;;;5072166;28;20393;-77
2021/03/10 02:16:20;;;;;;;5.13;4.43;;;8.80;99.90;;;;;;5071963;28;20690;-77
2021/03/10 02:19:00;;;;;;;4.75;3.88;;;8.80;99.90;;;;;;5071887;28;20168;-76
2021/03/10 02:21:49;;;;;;;4.32;3.92;;;8.80;99.90;;;;;;5071977;28;20168;-76
2021/03/10 02:24:27;;;;;;;4.68;4.00;;;8.70;99.90;;;;;;5034062;28;20178;-76
2021/03/10 02:27:33;;;;;;;4.75;4.35;;;8.70;99.90;;;;;;5071808;28;20187;-76
2021/03/10 02:30:08;;;;;;;6.78;4.35;;;8.70;99.90;;;;;;5053798;28;20229;-77
2021/03/10 02:32:37;;;;;;;4.75;4.35;;;8.70;99.90;;;;;;5053738;28;20553;-77
2021/03/10 02:35:05;;;;;;;4.53;3.92;;;8.70;99.90;;;;;;5071951;28;20188;-77
2021/03/10 02:37:33;;;;;;;5.80;4.85;;;8.70;99.90;;;;;;5077500;28;20169;-76
2021/03/10 02:40:00;;;;;;;5.50;5.00;;;8.70;99.90;;;;;;5053142;28;20238;-76
2021/03/10 02:42:27;;;;;;;5.10;4.68;;;8.60;99.90;;;;;;5071448;28;20314;-77
2021/03/10 02:44:55;;;;;;;6.40;5.40;;;8.60;99.90;;;;;;5053895;28;20169;-77
2021/03/10 02:47:24;;;;;;;5.40;4.25;;;8.70;99.90;;;;;;5071409;28;20172;-76
2021/03/10 02:49:55;;;;;;;4.18;3.78;;;8.70;99.90;;;;;;5036967;28;20183;-76
2021/03/10 02:52:22;;;;;;;4.35;3.95;;;8.70;99.90;;;;;;5071430;28;20218;-76
2021/03/10 02:54:49;;;;;;;7.68;5.05;;;8.70;99.90;;;;;;5071353;28;20596;-77
2021/03/10 02:57:15;;;;;;;5.38;4.97;;;8.70;99.90;;;;;;5071101;28;20157;-76
2021/03/10 02:59:44;;;;;;;4.97;4.50;;;8.70;99.90;;;;;;5053182;28;20180;-76
2021/03/10 03:02:11;;;;;;;4.28;3.88;;;8.70;99.90;;;;;;5036619;28;20261;-76
2021/03/10 03:04:36;;;;;;;4.78;4.38;;;8.80;99.90;;;;;;5071382;28;20161;-76
2021/03/10 03:07:02;;;;;;;4.73;4.30;;;8.70;99.90;;;;;;5071375;28;20161;-76
2021/03/10 03:09:29;;;;;;;3.93;3.63;;;8.80;99.90;;;;;;5071123;28;20160;-76
2021/03/10 03:11:56;;;;;;;8.55;4.50;;;8.80;99.90;;;;;;5053653;28;20633;-76
2021/03/10 03:14:22;;;;;;;4.70;4.30;;;8.80;99.90;;;;;;5042332;28;20172;-76
2021/03/10 03:16:49;;;;;;;6.18;4.70;;;8.80;99.90;;;;;;5071463;28;20195;-76
2021/03/10 03:19:15;;;;;;;4.03;3.63;;;8.80;99.90;;;;;;5070945;28;20160;-76
2021/03/10 03:21:42;;;;;;;4.33;3.77;;;8.80;99.90;;;;;;5071571;28;20305;-77
2021/03/10 03:24:09;;;;;;;4.90;4.50;;;8.80;99.90;;;;;;5052953;28;21183;-76
2021/03/10 03:26:36;;;;;;;6.18;4.50;;;8.80;99.90;;;;;;5071417;28;20249;-76
2021/03/10 03:29:03;;;;;;;5.55;4.88;;;8.80;99.90;;;;;;5052866;28;20558;-76
2021/03/10 03:31:31;;;;;;;4.68;4.28;;;8.80;99.90;;;;;;5071328;28;20592;-76
2021/03/10 03:33:58;;;;;;;5.75;4.90;;;8.80;99.90;;;;;;5053200;28;20556;-77
2021/03/10 03:36:24;;;;;;;4.95;4.45;;;8.80;99.90;;;;;;5071238;28;20204;-77
2021/03/10 03:38:50;;;;;;;5.72;5.20;;;8.80;99.90;;;;;;5070583;28;20160;-77
2021/03/10 03:41:19;;;;;;;5.88;5.28;;;8.80;99.90;;;;;;5071194;28;20161;-76
2021/03/10 03:43:45;;;;;;;5.25;4.75;;;8.80;99.90;;;;;;5053087;28;20200;-76
2021/03/10 03:46:12;;;;;;;6.50;5.77;;;8.70;99.90;;;;;;5070970;28;20178;-76
2021/03/10 03:48:38;;;;;;;5.40;4.90;;;8.70;99.90;;;;;;5052697;28;20604;-76
2021/03/10 03:51:22;;;;;;;6.50;5.83;;;8.60;99.90;;;;;;5062836;28;20169;-76
2021/03/10 03:54:03;;;;;;;7.65;5.40;;;8.60;99.90;;;;;;5056832;28;20226;-77
2021/03/10 03:56:29;;;;;;;9.43;6.10;;;8.60;99.90;;;;;;5071049;28;20287;-77
2021/03/10 03:58:56;;;;;;;6.32;5.80;;;8.50;99.90;;;;;;5074286;28;20218;-76
2021/03/10 04:01:22;;;;;;;8.52;6.07;;;8.50;99.90;;;;;;5056468;28;20172;-76
2021/03/10 04:03:48;;;;;;;9.55;6.43;;;8.40;99.90;;;;;;5074439;28;20246;-76
2021/03/10 04:06:15;;;;;;;7.63;6.45;;;8.30;99.90;;;;;;5056362;28;20536;-77
2021/03/10 04:08:42;;;;;;;7.72;6.30;;;8.20;99.90;;;;;;5074135;28;20628;-76
2021/03/10 04:11:09;;;;;;;7.18;6.47;;;8.20;99.90;;;;;;5074435;28;20168;-76
2021/03/10 04:13:42;;;;;;;7.78;6.65;;;8.10;99.90;;;;;;5074539;28;20268;-76
2021/03/10 04:16:09;;;;;;;8.45;7.22;;;8.00;99.90;;;;;;5056057;28;20200;-76
2021/03/10 04:18:38;;;;;;;8.75;7.25;;;7.90;99.90;;;;;;5052787;28;20513;-76
2021/03/10 04:21:08;;;;;;;8.30;7.45;;;7.90;99.90;;;;;;5036420;28;20514;-76
2021/03/10 04:23:34;;;;;;;9.25;8.20;;;7.90;99.90;;;;;;5054123;28;20192;-76
2021/03/10 04:26:00;;;;;;;9.57;8.68;;;7.90;99.90;;;;;;5053069;28;20161;-76
2021/03/10 04:28:26;;;;;;;8.77;7.70;;;7.80;99.90;;;;;;5059359;28;20165;-76
2021/03/10 04:30:52;;;;;;;9.80;8.70;;;7.80;99.90;;;;;;5052929;28;20242;-76
2021/03/10 04:33:18;;;;;;;9.77;8.53;;;7.80;99.90;;;;;;5052557;28;20606;-77
2021/03/10 04:35:44;;;;;;;8.70;7.82;;;7.80;99.90;;;;;;5052885;28;20224;-76
2021/03/10 04:38:10;;;;;;;10.23;9.17;;;7.80;99.90;;;;;;5052386;28;20710;-76
2021/03/10 04:40:35;;;;;;;8.87;8.07;;;7.80;99.90;;;;;;5054143;28;20248;-76
2021/03/10 04:43:01;;;;;;;9.20;8.33;;;7.80;99.90;;;;;;5039030;28;20253;-76
2021/03/10 04:45:27;;;;;;;9.90;9.00;;;7.80;99.90;;;;;;5073760;28;20208;-76
2021/03/10 04:47:52;;;;;;;11.07;9.17;;;7.80;99.90;;;;;;5055311;28;20176;-76
2021/03/10 04:50:18;;;;;;;10.43;9.40;;;7.80;99.90;;;;;;5073799;28;20168;-77
2021/03/10 04:52:44;;;;;;;11.77;10.17;;;7.80;99.90;;;;;;5055653;28;20663;-76
2021/03/10 04:55:11;;;;;;;10.63;9.63;;;7.80;99.90;;;;;;5073617;28;20211;-76
2021/03/10 04:57:38;;;;;;;15.35;12.77;;;7.80;99.90;;;;;;5055543;28;20168;-76
2021/03/10 05:00:10;;;;;;;11.20;10.10;;;7.80;99.90;;;;;;5073445;28;20184;-76
2021/03/10 05:02:37;;;;;;;12.10;10.93;;;7.80;99.90;;;;;;5055205;28;20187;-76
2021/03/10 05:05:04;;;;;;;13.85;12.45;;;7.80;99.90;;;;;;5079152;28;20172;-76
2021/03/10 05:07:31;;;;;;;11.68;10.57;;;7.80;99.90;;;;;;5055443;28;20632;-76
2021/03/10 05:09:56;;;;;;;13.35;12.05;;;7.80;99.90;;;;;;5055237;28;20173;-76
2021/03/10 05:12:22;;;;;;;13.40;12.00;;;7.90;99.90;;;;;;5073213;28;20298;-76
2021/03/10 05:14:48;;;;;;;13.70;12.30;;;7.90;99.90;;;;;;5073282;28;20173;-76
2021/03/10 05:17:14;;;;;;;13.30;11.40;;;7.90;99.90;;;;;;5073215;28;20593;-76
2021/03/10 05:19:41;;;;;;;12.70;11.47;;;7.90;99.90;;;;;;5072902;28;20183;-76
2021/03/10 05:22:07;;;;;;;14.32;11.45;;;8.00;99.90;;;;;;5055314;28;20562;-76
2021/03/10 05:24:33;;;;;;;12.30;11.00;;;8.10;99.90;;;;;;5071837;28;20171;-76
2021/03/10 05:26:59;;;;;;;15.57;13.27;;;8.10;99.90;;;;;;5053186;28;20642;-76
2021/03/10 05:29:25;;;;;;;12.70;11.50;;;8.10;99.90;;;;;;5034784;28;20602;-76
2021/03/10 05:31:51;;;;;;;12.90;11.50;;;8.20;99.90;;;;;;5069922;28;20246;-76
2021/03/10 05:34:17;;;;;;;13.67;12.33;;;8.30;99.90;;;;;;5072356;28;20176;-76
2021/03/10 05:36:43;;;;;;;17.43;13.50;;;8.30;99.90;;;;;;5069953;28;21021;-76
2021/03/10 05:39:09;;;;;;;14.73;13.23;;;8.40;99.90;;;;;;5050240;28;20579;-76
2021/03/10 05:41:34;;;;;;;16.57;14.77;;;8.40;99.90;;;;;;5076305;28;20578;-76
2021/03/10 05:44:01;;;;;;;14.30;12.90;;;8.50;99.90;;;;;;5071782;28;20291;-76
2021/03/10 05:46:27;;;;;;;15.13;13.30;;;8.60;99.90;;;;;;5072245;28;20615;-76
2021/03/10 05:48:53;;;;;;;15.23;13.67;;;8.60;99.90;;;;;;5062713;28;20168;-76
2021/03/10 05:51:19;;;;;;;16.40;14.70;;;8.70;99.90;;;;;;5072240;28;20176;-76
2021/03/10 05:53:46;;;;;;;16.63;13.63;;;8.70;99.90;;;;;;5072286;28;20701;-76
2021/03/10 05:56:13;;;;;;;14.45;12.95;;;8.80;99.90;;;;;;5038026;28;20208;-76
2021/03/10 05:58:39;;;;;;;15.18;13.65;;;8.80;99.90;;;;;;5037455;28;20173;-76
2021/03/10 06:01:05;;;;;;;14.60;13.00;;;8.80;99.90;;;;;;5072184;28;20177;-76
2021/03/10 06:03:31;;;;;;;16.30;14.30;;;8.90;99.90;;;;;;5054656;28;20602;-76
2021/03/10 06:06:02;;;;;;;18.00;15.63;;;8.90;99.90;;;;;;5072219;28;20562;-75
2021/03/10 06:08:30;;;;;;;19.10;16.80;;;8.80;99.90;;;;;;5037316;28;20584;-76
2021/03/10 06:10:56;;;;;;;18.23;14.93;;;8.70;99.90;;;;;;5037629;28;20176;-76
2021/03/10 06:13:28;;;;;;;18.88;16.10;;;8.60;99.90;;;;;;5053612;28;20192;-76
2021/03/10 06:16:01;;;;;;;19.58;15.90;;;8.50;99.90;;;;;;5071958;28;20249;-77
2021/03/10 06:18:33;;;;;;;17.25;15.45;;;8.40;99.90;;;;;;5075611;28;20168;-76
2021/03/10 06:21:04;;;;;;;17.05;13.55;;;8.40;99.90;;;;;;5055063;28;20249;-76
2021/03/10 06:23:31;;;;;;;16.00;14.40;;;8.30;99.90;;;;;;5054131;28;20184;-76
2021/03/10 06:25:57;;;;;;;18.45;15.90;;;8.20;99.90;;;;;;5071816;28;20219;-75
2021/03/10 06:28:34;;;;;;;15.97;14.37;;;8.20;99.90;;;;;;5071442;28;20643;-76
2021/03/10 06:31:00;;;;;;;15.45;13.02;;;8.20;99.90;;;;;;5071859;28;20168;-76
2021/03/10 06:33:26;;;;;;;16.52;14.25;;;8.10;99.90;;;;;;5069501;28;20568;-76
2021/03/10 06:35:52;;;;;;;17.77;15.10;;;8.20;99.90;;;;;;5070284;28;20199;-76
2021/03/10 06:38:19;;;;;;;14.00;12.53;;;8.20;99.90;;;;;;5071214;28;20168;-76
2021/03/10 06:40:52;;;;;;;17.35;14.50;;;8.20;99.90;;;;;;5071710;28;20218;-76
2021/03/10 06:43:18;;;;;;;16.80;14.43;;;8.30;99.90;;;;;;5070700;28;20226;-76
2021/03/10 06:45:45;;;;;;;17.02;13.93;;;8.30;99.90;;;;;;5061743;28;20176;-76
2021/03/10 06:48:21;;;;;;;16.00;14.40;;;8.30;99.90;;;;;;5070297;28;20635;-77
2021/03/10 06:50:48;;;;;;;20.25;15.90;;;8.30;99.90;;;;;;5070225;28;20182;-76
2021/03/10 06:53:14;;;;;;;20.50;18.10;;;8.20;99.90;;;;;;5068994;28;20188;-76
2021/03/10 06:55:45;;;;;;;17.50;14.20;;;8.20;99.90;;;;;;5068602;28;20214;-77
2021/03/10 06:58:21;;;;;;;19.70;16.98;;;8.10;99.90;;;;;;5071053;28;20548;-76
2021/03/10 07:00:48;;;;;;;18.73;16.20;;;8.10;99.90;;;;;;5071499;28;20176;-76
2021/03/10 07:03:14;;;;;;;18.13;15.27;;;8.10;99.90;;;;;;5053214;28;20263;-76
2021/03/10 07:05:41;;;;;;;15.73;13.70;;;8.00;99.90;;;;;;5071019;28;20719;-76
2021/03/10 07:08:07;;;;;;;17.98;15.57;;;8.10;99.90;;;;;;5052777;28;20183;-76
2021/03/10 07:10:35;;;;;;;21.08;16.05;;;8.10;99.90;;;;;;5071247;28;20179;-77
2021/03/10 07:13:01;;;;;;;21.65;19.13;;;8.10;99.90;;;;;;5070942;28;20184;-77
2021/03/10 07:15:27;;;;;;;17.70;15.80;;;8.10;99.90;;;;;;5053162;28;20253;-77
2021/03/10 07:17:54;;;;;;;18.77;16.77;;;8.10;99.90;;;;;;5052885;28;20171;-77
2021/03/10 07:20:21;;;;;;;17.65;15.48;;;8.10;99.90;;;;;;5053164;28;20169;-77
2021/03/10 07:22:57;;;;;;;15.40;13.77;;;8.10;99.90;;;;;;5053437;28;20183;-76
2021/03/10 07:25:30;;;;;;;19.50;16.00;;;8.20;99.90;;;;;;5055518;28;20156;-76
2021/03/10 07:28:00;;;;;;;17.13;14.80;;;8.20;99.90;;;;;;5074711;28;20230;-76
2021/03/10 07:30:38;;;;;;;20.27;16.35;;;8.30;99.90;;;;;;5056934;28;20172;-76
2021/03/10 07:33:15;;;;;;;23.48;19.10;;;8.30;99.90;;;;;;5077938;28;20188;-75
2021/03/10 07:36:01;;;;;;;23.20;16.80;;;8.30;99.90;;;;;;5074791;28;20199;-75
2021/03/10 07:38:36;;;;;;;19.00;15.90;;;8.30;99.90;;;;;;5040127;28;20651;-76
2021/03/10 07:41:13;;;;;;;18.15;16.25;;;8.40;99.90;;;;;;5040311;28;20233;-75
2021/03/10 07:43:46;;;;;;;20.80;16.67;;;8.40;99.90;;;;;;5076684;28;20209;-76
2021/03/10 07:46:32;;;;;;;19.83;17.73;;;8.40;99.90;;;;;;5056868;28;20636;-77
2021/03/10 07:48:59;;;;;;;17.92;15.15;;;8.30;99.90;;;;;;5056549;28;20238;-77
2021/03/10 07:51:35;;;;;;;21.25;14.60;;;8.30;99.90;;;;;;5074440;28;20190;-77
2021/03/10 07:54:14;;;;;;;18.25;15.90;;;8.40;99.90;;;;;;5074518;28;20647;-77
2021/03/10 07:56:40;;;;;;;20.10;16.20;;;8.50;99.90;;;;;;5074537;28;20269;-77
2021/03/10 07:59:24;;;;;;;17.15;15.27;;;8.50;99.90;;;;;;5055973;28;20161;-77
2021/03/10 08:02:03;;;;;;;18.60;14.77;;;8.60;99.90;;;;;;5056280;28;20234;-76
2021/03/10 08:04:29;;;;;;;18.33;15.40;;;8.60;99.90;;;;;;5056356;28;20305;-77
2021/03/10 08:06:55;;;;;;;23.70;16.53;;;8.70;99.90;;;;;;5056447;28;20588;-76
2021/03/10 08:09:23;;;;;;;18.02;15.15;;;8.70;99.90;;;;;;5055900;28;20639;-77
2021/03/10 08:12:06;;;;;;;21.20;16.60;;;8.70;99.90;;;;;;5061532;28;20176;-76
2021/03/10 08:14:47;;;;;;;18.92;16.92;;;8.80;99.90;;;;;;5056421;28;20214;-76
2021/03/10 08:17:24;;;;;;;20.15;14.05;;;8.80;99.90;;;;;;5074066;28;20168;-76
2021/03/10 08:20:04;;;;;;;23.08;17.45;;;8.80;99.90;;;;;;5039170;28;20259;-76
2021/03/10 08:22:32;;;;;;;18.95;14.15;;;8.80;99.90;;;;;;5056000;28;20203;-76
2021/03/10 08:25:00;;;;;;;22.02;16.67;;;8.90;99.90;;;;;;5056275;28;20223;-76
2021/03/10 08:27:42;;;;;;;19.42;16.45;;;8.90;99.90;;;;;;5073576;28;20242;-76
2021/03/10 08:30:11;;;;;;;17.83;15.50;;;8.90;99.90;;;;;;5073504;28;20542;-76
2021/03/10 08:32:38;;;;;;;18.52;15.48;;;8.90;99.90;;;;;;5039239;28;20210;-77
2021/03/10 08:35:33;;;;;;;19.15;14.52;;;8.90;99.90;;;;;;5055961;28;20192;-77
2021/03/10 08:38:04;;;;;;;18.55;15.23;;;8.90;99.90;;;;;;5068751;28;20184;-77
2021/03/10 08:40:33;;;;;;;19.23;15.77;;;8.90;99.90;;;;;;5073916;28;20385;-78
2021/03/10 08:43:00;;;;;;;17.17;15.25;;;8.90;99.90;;;;;;5055774;28;20219;-78
2021/03/10 08:45:29;;;;;;;21.40;17.05;;;8.90;99.90;;;;;;5056058;28;20168;-77
2021/03/10 08:48:09;;;;;;;19.27;17.00;;;9.00;99.90;;;;;;5058190;28;20265;-77
2021/03/10 08:50:42;;;;;;;19.15;17.10;;;9.00;99.90;;;;;;5055843;28;20168;-76
2021/03/10 08:53:11;;;;;;;21.13;16.40;;;9.00;99.90;;;;;;5073542;28;20198;-77
2021/03/10 08:55:37;;;;;;;23.13;20.02;;;9.10;99.90;;;;;;5055516;28;20238;-77
2021/03/10 08:58:14;;;;;;;24.85;20.25;;;9.10;99.90;;;;;;5073058;28;20168;-77
2021/03/10 09:00:42;;;;;;;23.38;18.25;;;9.10;99.90;;;;;;5055812;28;20661;-77
2021/03/10 09:03:15;;;;;;;20.35;17.05;;;9.20;99.90;;;;;;5038503;28;20791;-76
2021/03/10 09:05:43;;;;;;;20.90;18.52;;;9.20;99.90;;;;;;5038864;28;20620;-77
2021/03/10 09:08:14;;;;;;;21.20;18.40;;;9.30;99.90;;;;;;5072902;28;20243;-78
2021/03/10 09:10:51;;;;;;;22.30;18.40;;;9.30;99.90;;;;;;5055474;28;20290;-78
2021/03/10 09:13:35;;;;;;;20.85;15.90;;;9.40;99.90;;;;;;5055317;28;20207;-77
2021/03/10 09:16:10;;;;;;;21.05;16.90;;;9.50;99.90;;;;;;5055103;28;20207;-77
2021/03/10 09:18:38;;;;;;;22.45;18.08;;;9.50;99.90;;;;;;5038213;28;20781;-77
2021/03/10 09:21:04;;;;;;;23.40;17.50;;;9.60;99.90;;;;;;5038607;28;20263;-77
2021/03/10 09:23:35;;;;;;;22.13;18.75;;;9.70;99.90;;;;;;5056345;28;20602;-77
2021/03/10 09:26:06;;;;;;;23.23;18.20;;;9.80;99.90;;;;;;5054959;28;20252;-77
2021/03/10 09:28:37;;;;;;;24.27;20.88;;;9.80;99.90;;;;;;5037879;28;20226;-77
2021/03/10 09:31:13;;;;;;;23.92;18.35;;;9.90;99.90;;;;;;5054696;28;20168;-77
2021/03/10 09:33:41;;;;;;;26.20;20.83;;;10.00;99.90;;;;;;5054796;28;20203;-77
2021/03/10 09:36:11;;;;;;;23.73;19.40;;;10.00;99.90;;;;;;5054837;28;20222;-76
2021/03/10 09:38:52;;;;;;;23.48;19.88;;;10.10;99.90;;;;;;5072440;28;20165;-76
2021/03/10 09:41:27;;;;;;;21.45;17.88;;;10.20;99.90;;;;;;5054802;28;20172;-76
2021/03/10 09:44:08;;;;;;;20.55;17.95;;;10.40;99.90;;;;;;5037818;28;20970;-76
2021/03/10 09:46:40;;;;;;;22.25;19.88;;;10.50;99.90;;;;;;5038184;28;20176;-76
2021/03/10 09:49:06;;;;;;;26.23;19.10;;;10.70;99.90;;;;;;5053459;28;20198;-77
2021/03/10 09:51:43;;;;;;;19.70;17.60;;;10.80;99.90;;;;;;5037988;28;20195;-77
2021/03/10 09:54:09;;;;;;;18.70;15.98;;;11.00;99.90;;;;;;5038012;28;20192;-76
2021/03/10 09:56:49;;;;;;;22.98;18.48;;;11.20;99.90;;;;;;5038576;28;20563;-76
2021/03/10 09:59:15;;;;;;;25.98;18.05;;;11.50;99.90;;;;;;5054414;28;20589;-76
2021/03/10 10:01:48;;;;;;;22.80;19.40;;;11.60;99.90;;;;;;5040127;28;20168;-77
2021/03/10 10:04:28;;;;;;;20.00;17.23;;;11.70;99.90;;;;;;5054506;28;20199;-77
2021/03/10 10:06:56;;;;;;;20.67;18.45;;;11.80;99.90;;;;;;5054345;28;20604;-77
2021/03/10 10:09:28;;;;;;;23.38;19.75;;;11.90;99.90;;;;;;5037549;28;20183;-78
2021/03/10 10:11:59;;;;;;;22.38;19.17;;;12.00;99.90;;;;;;5054319;28;20251;-78
2021/03/10 10:14:30;;;;;;;22.52;20.13;;;12.10;99.90;;;;;;5038238;28;20184;-78
2021/03/10 10:16:56;;;;;;;19.77;17.30;;;12.10;99.90;;;;;;5071915;28;20206;-78
2021/03/10 10:19:27;;;;;;;20.35;18.08;;;12.20;99.90;;;;;;5053677;28;20562;-78
2021/03/10 10:21:54;;;;;;;19.58;15.90;;;12.30;99.90;;;;;;5053676;28;20217;-77
2021/03/10 10:24:20;;;;;;;23.23;16.83;;;12.50;99.90;;;;;;5053904;28;20620;-77
2021/03/10 10:26:48;;;;;;;23.50;20.33;;;12.70;99.90;;;;;;5037487;28;20590;-78
2021/03/10 10:29:19;;;;;;;21.60;19.40;;;12.80;99.90;;;;;;5053434;28;20187;-78
2021/03/10 10:31:48;;;;;;;18.02;16.02;;;12.90;99.90;;;;;;5054064;28;20168;-77
2021/03/10 10:34:16;;;;;;;22.73;18.67;;;13.10;99.90;;;;;;5052589;28;20192;-78
2021/03/10 10:36:45;;;;;;;20.02;17.95;;;13.40;99.90;;;;;;5053907;28;20683;-78
2021/03/10 10:39:11;;;;;;;19.20;16.50;;;13.60;99.90;;;;;;5024888;28;20179;-78
2021/03/10 10:41:37;;;;;;;17.37;13.90;;;13.80;99.90;;;;;;5053604;28;20563;-79
2021/03/10 10:44:03;;;;;;;22.40;18.80;;;14.10;99.90;;;;;;5071249;28;20703;-77
2021/03/10 10:46:30;;;;;;;18.90;17.00;;;14.30;99.90;;;;;;5053388;28;20569;-77
2021/03/10 10:48:56;;;;;;;19.17;17.17;;;14.50;99.90;;;;;;5053124;28;21205;-77
2021/03/10 10:51:29;;;;;;;23.47;17.77;;;14.50;99.90;;;;;;5037921;28;20640;-78
2021/03/10 10:54:02;;;;;;;16.57;14.87;;;14.60;99.90;;;;;;5053407;28;20598;-78
2021/03/10 10:56:28;;;;;;;16.87;15.17;;;14.70;99.90;;;;;;5053388;28;20649;-78
2021/03/10 10:58:56;;;;;;;16.77;15.00;;;14.70;99.90;;;;;;5053211;28;20570;-79
2021/03/10 11:01:27;;;;;;;18.37;16.47;;;14.80;99.90;;;;;;5037080;28;20620;-78
2021/03/10 11:03:53;;;;;;;18.53;16.80;;;14.80;99.90;;;;;;5053427;28;20710;-78
2021/03/10 11:06:19;;;;;;;20.10;18.17;;;14.80;99.90;;;;;;5053204;28;20579;-78
2021/03/10 11:08:46;;;;;;;19.97;17.87;;;14.80;99.90;;;;;;5071020;28;20597;-78
2021/03/10 11:11:13;;;;;;;16.70;15.00;;;14.70;99.90;;;;;;5037248;28;20658;-78
2021/03/10 11:13:43;;;;;;;18.10;16.10;;;14.90;99.90;;;;;;5037011;28;20611;-78
2021/03/10 11:16:19;;;;;;;19.53;17.53;;;14.80;99.90;;;;;;5057100;28;20704;-78
2021/03/10 11:18:58;;;;;;;20.23;18.20;;;14.90;99.90;;;;;;5053031;28;20558;-78
2021/03/10 11:21:26;;;;;;;20.10;16.10;;;14.80;99.90;;;;;;5053078;28;20581;-79
2021/03/10 11:23:52;;;;;;;22.57;18.97;;;14.90;99.90;;;;;;5071020;28;20595;-79
2021/03/10 11:26:19;;;;;;;19.80;17.40;;;15.00;99.90;;;;;;5053134;28;20602;-79
2021/03/10 11:28:46;;;;;;;22.07;18.50;;;15.00;99.90;;;;;;5070544;28;20571;-79
2021/03/10 11:31:14;;;;;;;18.40;16.57;;;14.90;99.90;;;;;;5053233;28;20575;-79
2021/03/10 11:33:45;;;;;;;20.10;16.97;;;14.90;99.90;;;;;;5056557;28;20637;-78
2021/03/10 11:36:13;;;;;;;18.17;16.40;;;14.80;99.90;;;;;;5064041;28;20622;-80
2021/03/10 11:38:46;;;;;;;16.67;14.87;;;14.80;99.90;;;;;;5071309;28;20618;-79
2021/03/10 11:41:12;;;;;;;15.33;13.73;;;14.70;99.90;;;;;;5052340;28;20587;-79
2021/03/10 11:43:38;;;;;;;18.80;16.83;;;14.80;99.90;;;;;;5052330;28;20679;-79
2021/03/10 11:46:04;;;;;;;17.63;15.53;;;14.70;99.90;;;;;;5052961;28;20168;-80
2021/03/10 11:48:32;;;;;;;17.57;15.77;;;14.60;99.90;;;;;;5052550;28;20636;-78
2021/03/10 11:50:58;;;;;;;13.60;12.17;;;14.60;99.90;;;;;;5051337;28;20591;-78
2021/03/10 11:53:24;;;;;;;12.17;10.97;;;14.70;99.90;;;;;;5058797;28;20634;-79
2021/03/10 11:55:50;;;;;;;14.20;12.30;;;15.00;99.90;;;;;;5071191;28;20625;-80
2021/03/10 11:58:16;;;;;;;12.27;9.87;;;15.30;99.90;;;;;;5069322;28;20988;-80
2021/03/10 12:00:42;;;;;;;7.93;5.80;;;15.60;99.90;;;;;;5069526;28;20571;-78
2021/03/10 12:03:15;;;;;;;8.50;5.97;;;15.90;99.90;;;;;;5062462;28;20709;-78
2021/03/10 12:05:50;;;;;;;5.20;4.73;;;16.10;99.90;;;;;;5061265;28;20586;-78
2021/03/10 12:08:15;;;;;;;5.83;5.13;;;16.40;99.90;;;;;;5055716;28;20680;-78
2021/03/10 12:10:42;;;;;;;4.77;4.30;;;16.70;99.90;;;;;;5065528;28;20686;-78
2021/03/10 12:13:11;;;;;;;5.80;5.27;;;17.00;99.90;;;;;;5064206;28;20695;-78
2021/03/10 12:15:38;;;;;;;5.43;4.97;;;17.30;99.90;;;;;;5059625;28;20622;-79
2021/03/10 12:18:05;;;;;;;5.67;4.80;;;17.40;99.90;;;;;;5073615;28;20571;-79
2021/03/10 12:20:31;;;;;;;5.90;4.40;;;17.50;99.90;;;;;;5073471;28;20665;-80
2021/03/10 12:22:57;;;;;;;7.30;5.00;;;17.60;99.90;;;;;;5068667;28;20620;-78
2021/03/10 12:25:23;;;;;;;4.27;3.83;;;17.70;99.90;;;;;;5065108;28;21231;-79
2021/03/10 12:27:50;;;;;;;8.60;4.30;;;17.70;99.90;;;;;;5061123;28;20598;-78
2021/03/10 12:30:17;;;;;;;4.50;3.93;;;17.80;99.90;;;;;;5071382;28;20686;-78
2021/03/10 12:32:46;;;;;;;4.40;4.00;;;17.90;99.90;;;;;;5042468;28;20966;-79
2021/03/10 12:35:12;;;;;;;5.07;4.13;;;18.00;99.90;;;;;;5038844;28;20601;-79
2021/03/10 12:37:38;;;;;;;4.70;4.27;;;18.00;99.90;;;;;;5055759;28;20559;-80
2021/03/10 12:40:04;;;;;;;6.47;5.97;;;18.00;99.90;;;;;;5073111;28;20578;-78
2021/03/10 12:42:36;;;;;;;4.77;4.27;;;18.00;99.40;;;;;;5073521;28;20196;-79
2021/03/10 12:45:03;;;;;;;6.43;4.07;;;18.00;99.90;;;;;;5064488;28;20587;-78
2021/03/10 12:47:31;;;;;;;4.53;3.70;;;18.00;99.90;;;;;;5053590;28;20566;-79
2021/03/10 12:49:59;;;;;;;4.33;3.90;;;18.00;99.90;;;;;;5052026;28;20564;-78
2021/03/10 12:52:25;;;;;;;5.37;4.17;;;18.00;99.40;;;;;;5053665;28;20618;-80